createdAt,value
2018-04-24T00:00:06.521Z,66.00
2018-04-24T00:02:34.143Z,65.70
2018-04-24T00:05:02.122Z,65.70
2018-04-24T00:07:35.755Z,65.90
2018-04-24T00:10:03.385Z,65.90
2018-04-24T00:12:31.151Z,65.90
2018-04-24T00:14:59.625Z,66.20
2018-04-24T00:17:27.286Z,66.30
2018-04-24T00:19:54.847Z,66.20
2018-04-24T00:22:22.931Z,66.50
2018-04-24T00:24:50.786Z,66.40
2018-04-24T00:27:18.757Z,66.50
2018-04-24T00:29:46.729Z,66.40
2018-04-24T00:32:14.223Z,66.60
2018-04-24T00:34:41.854Z,67.00
2018-04-24T00:37:09.509Z,66.70
2018-04-24T00:39:37.175Z,66.90
2018-04-24T00:42:05.348Z,67.00
2018-04-24T00:44:32.832Z,67.30
2018-04-24T00:47:00.370Z,67.20
2018-04-24T00:49:27.855Z,67.60
2018-04-24T00:51:55.482Z,67.40
2018-04-24T00:54:23.451Z,67.40
2018-04-24T00:56:51.357Z,67.70
2018-04-24T00:59:18.991Z,67.70
2018-04-24T01:01:46.646Z,67.80
2018-04-24T01:04:14.613Z,67.70
2018-04-24T01:06:42.250Z,67.90
2018-04-24T01:09:09.948Z,67.70
2018-04-24T01:11:37.608Z,67.80
2018-04-24T01:14:05.292Z,68.50
2018-04-24T01:16:32.939Z,68.00
2018-04-24T01:19:00.794Z,68.10
2018-04-24T01:21:28.865Z,68.10
2018-04-24T01:23:56.531Z,68.20
2018-04-24T01:26:24.425Z,68.30
2018-04-24T01:28:52.005Z,68.10
2018-04-24T01:31:19.516Z,68.10
2018-04-24T01:33:47.487Z,68.50
2018-04-24T01:36:15.461Z,68.70
2018-04-24T01:38:43.219Z,68.90
2018-04-24T01:41:11.193Z,68.90
2018-04-24T01:43:39.265Z,68.70
2018-04-24T01:46:07.338Z,68.70
2018-04-24T01:48:35.082Z,68.70
2018-04-24T01:51:02.771Z,68.80
2018-04-24T01:56:04.692Z,69.10
2018-04-24T01:58:34.247Z,69.10
2018-04-24T02:01:02.218Z,69.10
2018-04-24T02:03:30.205Z,69.50
2018-04-24T02:05:57.848Z,69.90
2018-04-24T02:08:25.918Z,69.90
2018-04-24T02:10:54.205Z,70.20
2018-04-24T02:13:22.065Z,70.20
2018-04-24T02:15:50.443Z,70.30
2018-04-24T02:18:18.515Z,70.50
2018-04-24T02:20:47.533Z,70.50
2018-04-24T02:23:15.327Z,70.40
2018-04-24T02:25:42.891Z,71.20
2018-04-24T02:28:10.393Z,72.10
2018-04-24T02:30:38.057Z,72.10
2018-04-24T02:33:06.033Z,71.70
2018-04-24T02:35:33.508Z,72.50
2018-04-24T02:38:01.147Z,72.80
2018-04-24T02:40:29.021Z,72.90
2018-04-24T02:42:56.535Z,73.10
2018-04-24T02:45:24.241Z,72.90
2018-04-24T02:47:52.208Z,73.40
2018-04-24T02:50:20.200Z,73.50
2018-04-24T02:52:47.740Z,74.10
2018-04-24T02:55:15.719Z,74.00
2018-04-24T02:57:43.380Z,74.00
2018-04-24T03:00:11.032Z,74.20
2018-04-24T03:02:38.927Z,74.20
2018-04-24T03:05:07.236Z,73.90
2018-04-24T03:07:34.834Z,73.90
2018-04-24T03:10:02.858Z,73.80
2018-04-24T03:12:30.467Z,73.60
2018-04-24T03:14:58.356Z,73.50
2018-04-24T03:17:26.757Z,74.10
2018-04-24T03:19:54.281Z,73.40
2018-04-24T03:22:25.841Z,74.20
2018-04-24T03:24:53.418Z,74.40
2018-04-24T03:27:20.949Z,75.00
2018-04-24T03:29:48.747Z,75.10
2018-04-24T03:32:16.279Z,75.00
2018-04-24T03:34:43.762Z,74.70
2018-04-24T03:37:11.393Z,74.60
2018-04-24T03:39:40.285Z,75.50
2018-04-24T03:42:08.252Z,75.40
2018-04-24T03:44:36.252Z,75.40
2018-04-24T03:47:04.011Z,75.30
2018-04-24T03:49:31.505Z,75.30
2018-04-24T03:51:59.103Z,75.40
2018-04-24T03:54:27.096Z,75.30
2018-04-24T03:56:54.637Z,75.20
2018-04-24T03:59:22.709Z,75.50
2018-04-24T04:01:50.987Z,75.70
2018-04-24T04:04:18.957Z,75.90
2018-04-24T04:06:46.623Z,75.90
2018-04-24T04:09:14.588Z,76.00
2018-04-24T04:11:42.559Z,75.80
2018-04-24T04:14:10.936Z,75.70
2018-04-24T04:16:38.614Z,75.60
2018-04-24T04:19:18.048Z,75.80
2018-04-24T04:21:57.895Z,76.00
2018-04-24T04:27:20.501Z,75.90
2018-04-24T04:29:48.274Z,75.90
2018-04-24T04:32:15.702Z,75.90
2018-04-24T04:34:43.162Z,75.90
2018-04-24T04:37:10.716Z,75.80
2018-04-24T04:39:38.249Z,75.70
2018-04-24T04:42:06.439Z,75.90
2018-04-24T04:44:34.310Z,75.90
2018-04-24T04:47:01.868Z,76.10
2018-04-24T04:49:29.310Z,76.40
2018-04-24T04:51:57.383Z,76.40
2018-04-24T04:54:25.360Z,76.70
2018-04-24T04:56:53.373Z,76.60
2018-04-24T04:59:20.881Z,76.20
2018-04-24T05:01:48.804Z,76.00
2018-04-24T05:04:16.515Z,76.50
2018-04-24T05:06:44.176Z,76.70
2018-04-24T05:09:11.698Z,76.50
2018-04-24T05:11:39.303Z,76.80
2018-04-24T05:14:08.189Z,76.60
2018-04-24T05:16:35.905Z,77.00
2018-04-24T05:19:03.409Z,76.90
2018-04-24T05:21:31.381Z,76.50
2018-04-24T05:23:58.849Z,77.30
2018-04-24T05:26:30.425Z,77.30
2018-04-24T05:28:57.953Z,77.70
2018-04-24T05:31:25.922Z,77.50
2018-04-24T05:33:53.943Z,77.60
2018-04-24T05:36:27.667Z,77.30
2018-04-24T05:39:18.839Z,77.70
2018-04-24T05:41:46.787Z,77.20
2018-04-24T05:44:14.952Z,78.00
2018-04-24T05:46:43.027Z,77.40
2018-04-24T05:49:10.503Z,77.90
2018-04-24T05:51:38.043Z,77.50
2018-04-24T05:54:05.937Z,77.30
2018-04-24T05:56:33.591Z,77.70
2018-04-24T05:59:01.048Z,77.40
2018-04-24T06:01:29.021Z,77.40
2018-04-24T06:03:56.676Z,77.10
2018-04-24T06:06:24.223Z,77.40
2018-04-24T06:08:52.120Z,77.50
2018-04-24T06:11:19.757Z,77.20
2018-04-24T06:13:47.311Z,77.10
2018-04-24T06:16:14.806Z,77.20
2018-04-24T06:18:42.654Z,77.30
2018-04-24T06:21:10.305Z,77.40
2018-04-24T06:23:37.973Z,77.90
2018-04-24T06:26:05.624Z,78.10
2018-04-24T06:28:42.311Z,77.30
2018-04-24T06:31:10.279Z,77.40
2018-04-24T06:33:37.768Z,77.30
2018-04-24T06:36:05.499Z,77.30
2018-04-24T06:38:33.120Z,77.20
2018-04-24T06:41:00.643Z,77.20
2018-04-24T06:43:28.203Z,77.00
2018-04-24T06:45:55.833Z,77.10
2018-04-24T06:48:23.633Z,77.20
2018-04-24T06:50:51.258Z,77.20
2018-04-24T06:53:19.240Z,77.20
2018-04-24T06:55:46.891Z,76.90
2018-04-24T06:58:14.671Z,77.10
2018-04-24T07:00:42.431Z,77.10
2018-04-24T07:03:10.505Z,77.00
2018-04-24T07:05:38.467Z,77.30
2018-04-24T07:08:06.973Z,77.30
2018-04-24T07:10:34.505Z,77.10
2018-04-24T07:13:02.166Z,76.90
2018-04-24T07:15:30.137Z,76.80
2018-04-24T07:17:57.798Z,76.90
2018-04-24T07:20:25.733Z,76.80
2018-04-24T07:22:53.327Z,76.80
2018-04-24T07:25:20.941Z,76.70
2018-04-24T07:27:48.857Z,76.20
2018-04-24T07:30:16.346Z,76.30
2018-04-24T07:32:43.874Z,76.20
2018-04-24T07:35:11.768Z,76.30
2018-04-24T07:37:39.228Z,76.30
2018-04-24T07:40:06.762Z,76.40
2018-04-24T07:42:34.753Z,76.20
2018-04-24T07:45:02.211Z,76.10
2018-04-24T07:47:29.748Z,76.50
2018-04-24T07:49:57.724Z,76.50
2018-04-24T07:52:25.177Z,76.40
2018-04-24T07:54:53.351Z,76.20
2018-04-24T07:57:21.323Z,76.70
2018-04-24T07:59:49.290Z,76.40
2018-04-24T08:02:17.263Z,76.20
2018-04-24T08:04:45.133Z,76.20
2018-04-24T08:07:12.769Z,76.30
2018-04-24T08:09:40.301Z,76.40
2018-04-24T08:12:08.017Z,76.40
2018-04-24T08:14:35.875Z,76.80
2018-04-24T08:17:03.849Z,76.60
2018-04-24T08:19:31.712Z,76.90
2018-04-24T08:21:59.300Z,76.50
2018-04-24T08:24:26.843Z,76.40
2018-04-24T08:26:55.007Z,76.70
2018-04-24T08:29:22.901Z,76.90
2018-04-24T08:31:50.536Z,76.70
2018-04-24T08:34:18.711Z,76.40
2018-04-24T08:36:46.791Z,76.30
2018-04-24T08:39:14.965Z,76.20
2018-04-24T08:41:42.928Z,76.70
2018-04-24T08:44:11.100Z,77.00
2018-04-24T08:46:38.972Z,76.90
2018-04-24T08:49:06.943Z,76.60
2018-04-24T08:51:34.498Z,76.60
2018-04-24T08:54:02.469Z,76.90
2018-04-24T08:56:30.276Z,76.80
2018-04-24T08:58:57.898Z,76.40
2018-04-24T09:01:25.356Z,76.40
2018-04-24T09:03:53.323Z,76.40
2018-04-24T09:06:21.191Z,76.50
2018-04-24T09:08:49.379Z,76.50
2018-04-24T09:11:16.931Z,76.60
2018-04-24T09:13:44.895Z,76.30
2018-04-24T09:16:13.072Z,76.30
2018-04-24T09:18:40.630Z,76.20
2018-04-24T09:21:08.199Z,76.10
2018-04-24T09:23:36.268Z,76.40
2018-04-24T09:26:04.537Z,76.50
2018-04-24T09:28:32.436Z,76.20
2018-04-24T09:30:59.964Z,76.50
2018-04-24T09:33:27.906Z,76.60
2018-04-24T09:35:55.293Z,76.40
2018-04-24T09:38:23.256Z,76.10
2018-04-24T09:40:51.128Z,76.50
2018-04-24T09:43:19.103Z,76.30
2018-04-24T09:45:47.075Z,76.30
2018-04-24T09:48:15.035Z,76.70
2018-04-24T09:50:42.902Z,76.40
2018-04-24T09:53:10.871Z,76.20
2018-04-24T09:55:38.739Z,76.20
2018-04-24T09:58:06.809Z,76.30
2018-04-24T10:00:36.652Z,76.50
2018-04-24T10:03:04.285Z,76.40
2018-04-24T10:05:32.152Z,76.30
2018-04-24T10:08:00.051Z,76.40
2018-04-24T10:10:28.193Z,76.60
2018-04-24T10:12:56.163Z,76.70
2018-04-24T10:15:24.238Z,76.30
2018-04-24T10:17:52.206Z,76.10
2018-04-24T10:20:20.176Z,76.50
2018-04-24T10:22:47.940Z,76.20
2018-04-24T10:25:15.760Z,76.00
2018-04-24T10:27:43.242Z,76.10
2018-04-24T10:30:10.943Z,76.30
2018-04-24T10:32:38.498Z,76.10
2018-04-24T10:35:06.251Z,75.90
2018-04-24T10:37:34.255Z,76.40
2018-04-24T10:40:01.783Z,76.20
2018-04-24T10:42:29.447Z,76.40
2018-04-24T10:44:57.339Z,75.70
2018-04-24T10:47:24.879Z,75.90
2018-04-24T10:49:52.770Z,75.60
2018-04-24T10:52:20.310Z,75.60
2018-04-24T10:54:48.168Z,76.20
2018-04-24T10:57:16.061Z,76.00
2018-04-24T10:59:43.594Z,76.40
2018-04-24T11:02:11.170Z,76.30
2018-04-24T11:04:38.717Z,76.40
2018-04-24T11:07:06.697Z,76.80
2018-04-24T11:09:34.349Z,76.60
2018-04-24T11:12:02.324Z,76.60
2018-04-24T11:14:30.214Z,76.50
2018-04-24T11:16:57.745Z,76.20
2018-04-24T11:19:25.611Z,76.50
2018-04-24T11:21:53.485Z,76.50
2018-04-24T11:24:21.449Z,76.70
2018-04-24T11:26:49.173Z,77.10
2018-04-24T11:29:16.671Z,77.70
2018-04-24T11:31:44.540Z,77.60
2018-04-24T11:34:12.514Z,77.70
2018-04-24T11:36:40.026Z,77.70
2018-04-24T11:39:07.729Z,77.60
2018-04-24T11:41:38.471Z,77.80
2018-04-24T11:44:06.145Z,78.20
2018-04-24T11:46:33.804Z,78.20
2018-04-24T11:49:01.246Z,78.90
2018-04-24T11:51:29.215Z,78.90
2018-04-24T11:53:57.288Z,78.50
2018-04-24T11:56:28.659Z,78.40
2018-04-24T11:58:57.016Z,79.30
2018-04-24T12:01:24.681Z,79.10
2018-04-24T12:03:52.489Z,79.00
2018-04-24T12:06:20.430Z,79.30
2018-04-24T12:08:48.279Z,79.30
2018-04-24T12:11:15.877Z,78.90
2018-04-24T12:13:43.403Z,78.90
2018-04-24T12:16:11.369Z,79.00
2018-04-24T12:18:39.341Z,78.80
2018-04-24T12:21:07.219Z,78.60
2018-04-24T12:23:35.791Z,78.30
2018-04-24T12:26:03.479Z,78.50
2018-04-24T12:28:41.261Z,78.60
2018-04-24T12:31:09.231Z,78.40
2018-04-24T12:33:37.202Z,78.30
2018-04-24T12:36:05.166Z,77.70
2018-04-24T12:38:32.826Z,78.20
2018-04-24T12:41:00.794Z,78.00
2018-04-24T12:43:28.767Z,77.90
2018-04-24T12:45:56.736Z,77.70
2018-04-24T12:48:24.642Z,77.70
2018-04-24T12:50:52.163Z,77.70
2018-04-24T12:53:20.134Z,77.70
2018-04-24T12:55:48.408Z,77.30
2018-04-24T12:58:15.969Z,77.00
2018-04-24T13:00:44.006Z,77.20
2018-04-24T13:03:11.923Z,77.10
2018-04-24T13:05:39.471Z,76.80
2018-04-24T13:08:07.445Z,76.80
2018-04-24T13:10:35.101Z,76.90
2018-04-24T13:13:03.071Z,77.10
2018-04-24T13:15:31.173Z,77.10
2018-04-24T13:17:58.916Z,77.00
2018-04-24T13:20:28.516Z,76.50
2018-04-24T13:22:56.809Z,76.20
2018-04-24T13:25:24.463Z,76.00
2018-04-24T13:27:52.126Z,75.90
2018-04-24T13:30:19.678Z,75.70
2018-04-24T13:32:47.648Z,75.60
2018-04-24T13:35:15.619Z,75.80
2018-04-24T13:37:43.175Z,75.80
2018-04-24T13:40:11.457Z,75.90
2018-04-24T13:42:39.013Z,75.90
2018-04-24T13:45:06.992Z,75.70
2018-04-24T13:47:34.647Z,75.50
2018-04-24T13:50:02.615Z,75.50
2018-04-24T13:52:30.036Z,75.40
2018-04-24T13:54:57.745Z,75.90
2018-04-24T13:57:25.298Z,76.40
2018-04-24T13:59:53.265Z,76.70
2018-04-24T14:02:20.956Z,76.80
2018-04-24T14:04:48.598Z,76.90
2018-04-24T14:07:16.150Z,76.90
2018-04-24T14:09:43.888Z,76.80
2018-04-24T14:12:11.448Z,76.60
2018-04-24T14:14:39.343Z,76.50
2018-04-24T14:17:07.313Z,76.20
2018-04-24T14:19:34.875Z,76.10
2018-04-24T14:22:02.838Z,76.10
2018-04-24T14:24:30.821Z,75.90
2018-04-24T14:26:58.841Z,75.80
2018-04-24T14:29:26.448Z,75.70
2018-04-24T14:31:54.211Z,75.90
2018-04-24T14:34:21.869Z,75.80
2018-04-24T14:36:49.954Z,76.10
2018-04-24T14:39:17.612Z,75.90
2018-04-24T14:41:45.269Z,74.50
2018-04-24T14:44:12.937Z,74.60
2018-04-24T14:46:40.427Z,73.80
2018-04-24T14:49:08.006Z,73.50
2018-04-24T14:51:35.519Z,72.50
2018-04-24T14:54:03.169Z,72.40
2018-04-24T14:56:31.063Z,71.70
2018-04-24T14:58:58.460Z,71.60
2018-04-24T15:01:26.062Z,71.60
2018-04-24T15:03:53.977Z,71.30
2018-04-24T15:06:21.688Z,71.20
2018-04-24T15:08:49.470Z,71.20
2018-04-24T15:11:17.014Z,70.70
2018-04-24T15:13:44.981Z,70.70
2018-04-24T15:16:12.793Z,70.30
2018-04-24T15:18:40.508Z,70.20
2018-04-24T15:21:09.604Z,70.30
2018-04-24T15:23:37.450Z,70.20
2018-04-24T15:26:05.031Z,70.20
2018-04-24T15:28:32.902Z,70.00
2018-04-24T15:31:00.872Z,70.20
2018-04-24T15:33:28.427Z,70.20
2018-04-24T15:35:56.812Z,70.20
2018-04-24T15:38:24.367Z,70.40
2018-04-24T15:40:52.555Z,70.20
2018-04-24T15:43:20.201Z,70.40
2018-04-24T15:45:48.174Z,70.40
2018-04-24T15:48:16.244Z,70.20
2018-04-24T15:50:44.315Z,70.20
2018-04-24T15:53:13.420Z,69.90
2018-04-24T15:55:40.900Z,69.90
2018-04-24T15:58:08.430Z,69.90
2018-04-24T16:00:36.446Z,69.80
2018-04-24T16:03:04.069Z,69.90
2018-04-24T16:05:31.939Z,69.90
2018-04-24T16:07:59.590Z,70.00
2018-04-24T16:10:27.458Z,70.20
2018-04-24T16:12:56.252Z,70.40
2018-04-24T16:15:24.114Z,70.50
2018-04-24T16:17:51.880Z,70.60
2018-04-24T16:20:19.448Z,70.50
2018-04-24T16:22:46.914Z,70.70
2018-04-24T16:25:14.458Z,70.70
2018-04-24T16:27:42.426Z,71.20
2018-04-24T16:30:10.221Z,70.90
2018-04-24T16:32:37.865Z,71.00
2018-04-24T16:35:05.418Z,71.20
2018-04-24T16:37:32.983Z,71.30
2018-04-24T16:40:00.839Z,71.30
2018-04-24T16:42:28.855Z,71.30
2018-04-24T16:44:56.369Z,71.40
2018-04-24T16:47:24.341Z,71.40
2018-04-24T16:49:51.820Z,71.60
2018-04-24T16:52:19.255Z,71.70
2018-04-24T16:54:47.233Z,71.80
2018-04-24T16:57:15.203Z,71.90
2018-04-24T16:59:43.268Z,71.80
2018-04-24T17:02:11.349Z,71.90
2018-04-24T17:04:38.930Z,71.90
2018-04-24T17:07:06.515Z,72.10
2018-04-24T17:09:34.020Z,71.90
2018-04-24T17:12:01.476Z,72.20
2018-04-24T17:14:29.445Z,72.40
2018-04-24T17:17:01.616Z,72.50
2018-04-24T17:19:29.481Z,72.90
2018-04-24T17:21:57.764Z,72.90
2018-04-24T17:24:25.329Z,72.90
2018-04-24T17:26:52.876Z,72.90
2018-04-24T17:29:20.764Z,73.80
2018-04-24T17:31:48.406Z,74.00
2018-04-24T17:34:16.377Z,73.90
2018-04-24T17:36:43.936Z,74.00
2018-04-24T17:39:11.910Z,73.90
2018-04-24T17:41:39.877Z,73.60
2018-04-24T17:44:07.956Z,73.30
2018-04-24T17:46:41.959Z,73.10
2018-04-24T17:49:09.623Z,73.00
2018-04-24T17:51:37.416Z,73.10
2018-04-24T17:54:04.948Z,73.10
2018-04-24T17:56:32.921Z,73.10
2018-04-24T17:59:00.897Z,72.90
2018-04-24T18:01:28.856Z,72.90
2018-04-24T18:04:01.418Z,72.90
2018-04-24T18:06:46.200Z,73.10
2018-04-24T18:09:14.380Z,73.60
2018-04-24T18:11:48.078Z,73.80
2018-04-24T18:14:16.261Z,73.40
2018-04-24T18:16:45.781Z,73.30
2018-04-24T18:19:13.316Z,73.10
2018-04-24T18:21:48.674Z,73.00
2018-04-24T18:24:16.220Z,73.10
2018-04-24T18:26:47.675Z,73.00
2018-04-24T18:29:16.081Z,73.10
2018-04-24T18:31:45.834Z,73.00
2018-04-24T18:34:13.739Z,72.90
2018-04-24T18:36:54.509Z,73.10
2018-04-24T18:39:22.580Z,73.10
2018-04-24T18:41:50.136Z,73.00
2018-04-24T18:44:18.102Z,72.90
2018-04-24T18:46:46.079Z,72.90
2018-04-24T18:49:17.120Z,72.90
2018-04-24T18:51:45.089Z,72.80
2018-04-24T18:54:24.212Z,72.80
2018-04-24T18:56:52.386Z,72.80
2018-04-24T18:59:20.389Z,72.90
2018-04-24T19:01:48.540Z,73.10
2018-04-24T19:04:20.603Z,73.10
2018-04-24T19:06:56.141Z,73.10
2018-04-24T19:09:24.318Z,73.10
2018-04-24T19:11:52.236Z,73.20
2018-04-24T19:14:25.370Z,73.20
2018-04-24T19:16:56.933Z,73.20
2018-04-24T19:19:31.559Z,73.20
2018-04-24T19:21:59.626Z,73.20
2018-04-24T19:24:33.436Z,73.20
2018-04-24T19:27:05.601Z,73.20
2018-04-24T19:29:33.673Z,73.30
2018-04-24T19:32:07.204Z,73.30
2018-04-24T19:34:34.836Z,73.50
2018-04-24T19:37:02.811Z,73.70
2018-04-24T19:39:36.417Z,73.80
2018-04-24T19:42:14.750Z,73.90
2018-04-24T19:44:42.588Z,73.90
2018-04-24T19:47:10.157Z,74.00
2018-04-24T19:49:43.962Z,74.10
2018-04-24T19:52:12.953Z,74.10
2018-04-24T19:54:50.960Z,74.00
2018-04-24T19:57:18.931Z,74.10
2018-04-24T19:59:46.901Z,74.10
2018-04-24T20:02:14.477Z,74.20
2018-04-24T20:04:41.929Z,74.50
2018-04-24T20:07:09.784Z,74.70
2018-04-24T20:09:37.754Z,74.60
2018-04-24T20:12:05.727Z,74.50
2018-04-24T20:14:33.688Z,74.40
2018-04-24T20:17:23.671Z,74.50
2018-04-24T20:19:51.645Z,74.40
2018-04-24T20:22:19.614Z,74.40
2018-04-24T20:24:47.787Z,74.70
2018-04-24T20:27:15.753Z,74.70
2018-04-24T20:29:43.831Z,74.70
2018-04-24T20:32:11.797Z,74.70
2018-04-24T20:34:39.276Z,74.50
2018-04-24T20:37:06.813Z,74.40
2018-04-24T20:39:36.728Z,74.40
2018-04-24T20:42:04.701Z,74.60
2018-04-24T20:44:32.667Z,74.30
2018-04-24T20:47:00.944Z,74.40
2018-04-24T20:49:29.128Z,74.40
2018-04-24T20:51:57.115Z,74.90
2018-04-24T20:54:24.749Z,75.10
2018-04-24T20:56:52.723Z,75.10
2018-04-24T20:59:24.579Z,74.70
2018-04-24T21:01:52.550Z,74.60
2018-04-24T21:04:20.523Z,74.70
2018-04-24T21:06:48.391Z,74.50
2018-04-24T21:09:19.845Z,74.80
2018-04-24T21:11:48.555Z,74.80
2018-04-24T21:14:16.115Z,74.80
2018-04-24T21:16:43.852Z,74.70
2018-04-24T21:19:11.740Z,75.00
2018-04-24T21:21:39.281Z,74.90
2018-04-24T21:24:07.171Z,74.90
2018-04-24T21:26:34.603Z,74.70
2018-04-24T21:29:03.616Z,74.70
2018-04-24T21:31:31.079Z,74.70
2018-04-24T21:33:58.716Z,74.70
2018-04-24T21:36:26.583Z,74.80
2018-04-24T21:38:54.655Z,74.90
2018-04-24T21:41:22.666Z,74.90
2018-04-24T21:43:50.340Z,74.80
2018-04-24T21:46:17.847Z,74.70
2018-04-24T21:48:45.825Z,74.90
2018-04-24T21:51:13.376Z,75.00
2018-04-24T21:53:41.354Z,74.90
2018-04-24T21:56:09.068Z,75.00
2018-04-24T21:58:36.672Z,74.90
2018-04-24T22:01:04.576Z,74.80
2018-04-24T22:03:32.303Z,75.00
2018-04-24T22:06:00.276Z,74.90
2018-04-24T22:08:28.251Z,74.90
2018-04-24T22:10:56.526Z,75.00
2018-04-24T22:13:24.521Z,75.00
2018-04-24T22:15:52.278Z,75.10
2018-04-24T22:18:19.918Z,75.00
2018-04-24T22:20:47.979Z,75.00
2018-04-24T22:23:15.653Z,75.00
2018-04-24T22:25:43.539Z,75.20
2018-04-24T22:28:11.191Z,75.10
2018-04-24T22:30:39.214Z,75.10
2018-04-24T22:33:06.743Z,75.10
2018-04-24T22:35:35.973Z,75.10
2018-04-24T22:38:03.542Z,75.20
2018-04-24T22:40:31.053Z,75.70
2018-04-24T22:42:58.596Z,75.60
2018-04-24T22:45:26.558Z,75.60
2018-04-24T22:48:03.129Z,75.80
2018-04-24T22:50:31.102Z,76.10
2018-04-24T22:52:58.660Z,76.20
2018-04-24T22:55:26.631Z,76.20
2018-04-24T22:57:54.448Z,76.50
2018-04-24T23:00:22.019Z,77.00
2018-04-24T23:02:49.997Z,77.00
2018-04-24T23:05:17.586Z,77.10
2018-04-24T23:07:45.557Z,76.80
2018-04-24T23:10:13.021Z,77.40
2018-04-24T23:12:52.451Z,77.70
2018-04-24T23:15:32.425Z,77.80
2018-04-24T23:18:11.738Z,78.10
2018-04-24T23:20:39.202Z,78.10
2018-04-24T23:23:06.757Z,78.20
2018-04-24T23:25:34.733Z,77.90
2018-04-24T23:28:02.677Z,78.00
2018-04-24T23:30:30.367Z,77.60
2018-04-24T23:32:57.841Z,77.90
2018-04-24T23:35:25.375Z,79.00
2018-04-24T23:37:53.346Z,79.10
2018-04-24T23:40:21.375Z,78.80
2018-04-24T23:42:48.985Z,78.40
2018-04-24T23:45:16.766Z,79.00
2018-04-24T23:47:44.200Z,79.10
2018-04-24T23:50:11.872Z,79.10
2018-04-24T23:52:39.423Z,79.20
2018-04-24T23:55:07.096Z,78.80
2018-04-24T23:57:34.749Z,78.30
